sensor_id;sensor_type;location;lat;lon;timestamp;pressure;altitude;pressure_sealevel;temperature;humidity
20622;BME280;10470;42.670;23.354;2023-03-22T00:00:26;94420.19;;;10.23;100.00
20622;BME280;10470;42.670;23.354;2023-03-22T00:02:53;94420.94;;;10.24;100.00
20622;BME280;10470;42.670;23.354;2023-03-22T00:05:19;94417.78;;;10.25;100.00
20622;BME280;10470;42.670;23.354;2023-03-22T00:07:45;94415.06;;;10.07;100.00
20622;BME280;10470;42.670;23.354;2023-03-22T00:10:15;94418.06;;;9.91;100.00
20622;BME280;10470;42.670;23.354;2023-03-22T00:12:41;94410.06;;;10.05;100.00
20622;BME280;10470;42.670;23.354;2023-03-22T00:15:07;94408.25;;;10.12;100.00
20622;BME280;10470;42.670;23.354;2023-03-22T00:17:33;94399.31;;;9.93;100.00
20622;BME280;10470;42.670;23.354;2023-03-22T00:20:01;94407.19;;;10.09;100.00
20622;BME280;10470;42.670;23.354;2023-03-22T00:22:31;94407.50;;;10.02;100.00
20622;BME280;10470;42.670;23.354;2023-03-22T00:24:56;94404.16;;;9.98;100.00
20622;BME280;10470;42.670;23.354;2023-03-22T00:27:22;94391.47;;;9.95;100.00
20622;BME280;10470;42.670;23.354;2023-03-22T00:29:47;94396.13;;;9.76;100.00
20622;BME280;10470;42.670;23.354;2023-03-22T00:32:13;94400.03;;;9.75;100.00
20622;BME280;10470;42.670;23.354;2023-03-22T00:34:38;94396.72;;;9.71;100.00
20622;BME280;10470;42.670;23.354;2023-03-22T00:37:04;94402.16;;;9.80;100.00
20622;BME280;10470;42.670;23.354;2023-03-22T00:39:29;94395.81;;;9.83;100.00
20622;BME280;10470;42.670;23.354;2023-03-22T00:41:55;94398.53;;;9.74;100.00
20622;BME280;10470;42.670;23.354;2023-03-22T00:44:20;94382.06;;;9.68;100.00
20622;BME280;10470;42.670;23.354;2023-03-22T00:46:45;94384.94;;;9.74;100.00
20622;BME280;10470;42.670;23.354;2023-03-22T00:49:11;94393.22;;;9.61;100.00
20622;BME280;10470;42.670;23.354;2023-03-22T00:51:36;94396.84;;;9.58;100.00
20622;BME280;10470;42.670;23.354;2023-03-22T00:54:02;94389.13;;;9.56;100.00
20622;BME280;10470;42.670;23.354;2023-03-22T00:56:27;94387.94;;;9.57;100.00
20622;BME280;10470;42.670;23.354;2023-03-22T00:58:53;94382.94;;;9.56;100.00
20622;BME280;10470;42.670;23.354;2023-03-22T01:01:19;94380.06;;;9.59;100.00
20622;BME280;10470;42.670;23.354;2023-03-22T01:03:44;94370.88;;;9.66;100.00
20622;BME280;10470;42.670;23.354;2023-03-22T01:06:14;94371.00;;;9.53;100.00
20622;BME280;10470;42.670;23.354;2023-03-22T01:08:39;94376.03;;;9.73;100.00
20622;BME280;10470;42.670;23.354;2023-03-22T01:11:05;94364.53;;;9.88;100.00
20622;BME280;10470;42.670;23.354;2023-03-22T01:13:32;94365.00;;;9.77;100.00
20622;BME280;10470;42.670;23.354;2023-03-22T01:15:57;94366.22;;;9.76;100.00
20622;BME280;10470;42.670;23.354;2023-03-22T01:18:23;94358.03;;;9.76;100.00
20622;BME280;10470;42.670;23.354;2023-03-22T01:20:48;94360.75;;;9.57;100.00
20622;BME280;10470;42.670;23.354;2023-03-22T01:23:15;94349.41;;;9.68;100.00
20622;BME280;10470;42.670;23.354;2023-03-22T01:25:40;94361.53;;;9.76;100.00
20622;BME280;10470;42.670;23.354;2023-03-22T01:28:06;94358.03;;;9.76;100.00
20622;BME280;10470;42.670;23.354;2023-03-22T01:30:31;94349.25;;;9.72;100.00
20622;BME280;10470;42.670;23.354;2023-03-22T01:32:57;94354.13;;;9.68;100.00
20622;BME280;10470;42.670;23.354;2023-03-22T01:35:22;94344.13;;;9.55;100.00
20622;BME280;10470;42.670;23.354;2023-03-22T01:37:48;94350.03;;;9.63;100.00
20622;BME280;10470;42.670;23.354;2023-03-22T01:40:14;94352.59;;;9.67;100.00
20622;BME280;10470;42.670;23.354;2023-03-22T01:42:40;94353.50;;;9.63;100.00
20622;BME280;10470;42.670;23.354;2023-03-22T01:47:41;94345.34;;;9.63;100.00
20622;BME280;10470;42.670;23.354;2023-03-22T01:50:08;94344.72;;;9.78;100.00
20622;BME280;10470;42.670;23.354;2023-03-22T01:52:35;94350.63;;;9.58;100.00
20622;BME280;10470;42.670;23.354;2023-03-22T01:55:03;94348.94;;;9.51;100.00
20622;BME280;10470;42.670;23.354;2023-03-22T01:57:31;94344.88;;;9.56;100.00
20622;BME280;10470;42.670;23.354;2023-03-22T02:00:06;94347.56;;;9.37;100.00
20622;BME280;10470;42.670;23.354;2023-03-22T02:02:38;94345.91;;;9.49;100.00
20622;BME280;10470;42.670;23.354;2023-03-22T02:05:04;94346.22;;;9.42;100.00
20622;BME280;10470;42.670;23.354;2023-03-22T02:07:30;94344.25;;;9.52;100.00
20622;BME280;10470;42.670;23.354;2023-03-22T02:09:57;94348.19;;;9.51;100.00
20622;BME280;10470;42.670;23.354;2023-03-22T02:32:02;94340.06;;;9.10;100.00
20622;BME280;10470;42.670;23.354;2023-03-22T02:45:35;94367.13;;;9.14;100.00
20622;BME280;10470;42.670;23.354;2023-03-22T02:48:14;94372.28;;;9.21;100.00
20622;BME280;10470;42.670;23.354;2023-03-22T02:50:58;94369.22;;;9.10;100.00
20622;BME280;10470;42.670;23.354;2023-03-22T02:53:36;94373.78;;;9.22;100.00
20622;BME280;10470;42.670;23.354;2023-03-22T02:58:43;94365.81;;;9.28;100.00
20622;BME280;10470;42.670;23.354;2023-03-22T03:01:17;94369.22;;;9.10;100.00
20622;BME280;10470;42.670;23.354;2023-03-22T03:03:46;94370.91;;;9.16;100.00
20622;BME280;10470;42.670;23.354;2023-03-22T03:06:17;94368.31;;;9.13;100.00
20622;BME280;10470;42.670;23.354;2023-03-22T03:08:45;94366.91;;;8.99;100.00
20622;BME280;10470;42.670;23.354;2023-03-22T03:11:15;94378.44;;;9.12;100.00
20622;BME280;10470;42.670;23.354;2023-03-22T03:13:40;94373.78;;;9.22;100.00
20622;BME280;10470;42.670;23.354;2023-03-22T03:16:10;94376.19;;;9.20;100.00
20622;BME280;10470;42.670;23.354;2023-03-22T03:18:58;94371.97;;;9.19;100.00
20622;BME280;10470;42.670;23.354;2023-03-22T03:24:35;94382.25;;;9.24;100.00
20622;BME280;10470;42.670;23.354;2023-03-22T03:27:24;94381.81;;;9.26;100.00
20622;BME280;10470;42.670;23.354;2023-03-22T03:30:00;94374.88;;;9.25;100.00
20622;BME280;10470;42.670;23.354;2023-03-22T03:32:44;94389.34;;;9.22;100.00
20622;BME280;10470;42.670;23.354;2023-03-22T03:35:24;94387.13;;;9.29;100.00
20622;BME280;10470;42.670;23.354;2023-03-22T03:38:12;94390.09;;;9.22;100.00
20622;BME280;10470;42.670;23.354;2023-03-22T03:40:46;94396.28;;;9.23;100.00
20622;BME280;10470;42.670;23.354;2023-03-22T03:43:14;94380.75;;;9.23;100.00
20622;BME280;10470;42.670;23.354;2023-03-22T03:45:40;94388.56;;;9.12;100.00
20622;BME280;10470;42.670;23.354;2023-03-22T03:48:19;94390.53;;;9.11;100.00
20622;BME280;10470;42.670;23.354;2023-03-22T03:50:47;94387.50;;;9.09;100.00
20622;BME280;10470;42.670;23.354;2023-03-22T03:53:15;94394.00;;;9.12;100.00
20622;BME280;10470;42.670;23.354;2023-03-22T03:55:40;94393.09;;;9.15;100.00
20622;BME280;10470;42.670;23.354;2023-03-22T03:58:06;94393.84;;;9.15;100.00
20622;BME280;10470;42.670;23.354;2023-03-22T04:00:34;94396.59;;;9.25;100.00
20622;BME280;10470;42.670;23.354;2023-03-22T04:02:59;94393.88;;;9.25;100.00
20622;BME280;10470;42.670;23.354;2023-03-22T04:05:25;94395.28;;;9.29;100.00
20622;BME280;10470;42.670;23.354;2023-03-22T04:07:50;94400.72;;;9.29;100.00
20622;BME280;10470;42.670;23.354;2023-03-22T04:10:16;94399.53;;;9.49;100.00
20622;BME280;10470;42.670;23.354;2023-03-22T04:12:41;94407.97;;;9.41;100.00
20622;BME280;10470;42.670;23.354;2023-03-22T04:15:07;94401.63;;;9.35;100.00
20622;BME280;10470;42.670;23.354;2023-03-22T04:17:33;94412.66;;;9.41;100.00
20622;BME280;10470;42.670;23.354;2023-03-22T04:19:58;94405.41;;;9.38;100.00
20622;BME280;10470;42.670;23.354;2023-03-22T04:22:24;94408.75;;;9.42;100.00
20622;BME280;10470;42.670;23.354;2023-03-22T04:24:49;94406.16;;;9.29;100.00
20622;BME280;10470;42.670;23.354;2023-03-22T04:27:19;94411.91;;;9.40;100.00
20622;BME280;10470;42.670;23.354;2023-03-22T04:29:45;94422.69;;;9.53;100.00
20622;BME280;10470;42.670;23.354;2023-03-22T04:32:19;94417.78;;;9.39;100.00
20622;BME280;10470;42.670;23.354;2023-03-22T04:34:49;94424.66;;;9.53;100.00
20622;BME280;10470;42.670;23.354;2023-03-22T04:37:15;94423.41;;;9.45;100.00
20622;BME280;10470;42.670;23.354;2023-03-22T04:39:42;94426.41;;;9.37;100.00
20622;BME280;10470;42.670;23.354;2023-03-22T04:42:08;94423.41;;;9.45;100.00
20622;BME280;10470;42.670;23.354;2023-03-22T04:44:34;94425.94;;;9.30;100.00
20622;BME280;10470;42.670;23.354;2023-03-22T04:46:59;94426.25;;;9.32;100.00
20622;BME280;10470;42.670;23.354;2023-03-22T04:49:25;94421.66;;;9.19;100.00
20622;BME280;10470;42.670;23.354;2023-03-22T04:51:52;94420.28;;;9.15;100.00
20622;BME280;10470;42.670;23.354;2023-03-22T04:54:18;94438.88;;;9.16;100.00
20622;BME280;10470;42.670;23.354;2023-03-22T04:56:43;94428.47;;;9.24;100.00
20622;BME280;10470;42.670;23.354;2023-03-22T04:59:09;94426.84;;;9.36;100.00
20622;BME280;10470;42.670;23.354;2023-03-22T05:01:35;94433.34;;;9.29;100.00
20622;BME280;10470;42.670;23.354;2023-03-22T05:04:02;94443.06;;;9.49;100.00
20622;BME280;10470;42.670;23.354;2023-03-22T05:06:28;94439.75;;;9.13;100.00
20622;BME280;10470;42.670;23.354;2023-03-22T05:08:57;94425.09;;;8.80;100.00
20622;BME280;10470;42.670;23.354;2023-03-22T05:11:23;94447.63;;;8.89;100.00
20622;BME280;10470;42.670;23.354;2023-03-22T05:13:54;94438.47;;;8.96;100.00
20622;BME280;10470;42.670;23.354;2023-03-22T05:16:20;94445.09;;;8.95;100.00
20622;BME280;10470;42.670;23.354;2023-03-22T05:18:46;94444.47;;;8.91;100.00
20622;BME280;10470;42.670;23.354;2023-03-22T05:21:12;94444.47;;;8.91;100.00
20622;BME280;10470;42.670;23.354;2023-03-22T05:23:43;94451.41;;;8.92;100.00
20622;BME280;10470;42.670;23.354;2023-03-22T05:26:09;94455.25;;;9.04;100.00
20622;BME280;10470;42.670;23.354;2023-03-22T05:28:35;94455.25;;;9.04;100.00
20622;BME280;10470;42.670;23.354;2023-03-22T05:31:02;94458.16;;;9.09;100.00
20622;BME280;10470;42.670;23.354;2023-03-22T05:33:27;94448.91;;;8.98;100.00
20622;BME280;10470;42.670;23.354;2023-03-22T05:35:54;94461.63;;;9.10;100.00
20622;BME280;10470;42.670;23.354;2023-03-22T05:38:19;94459.66;;;9.10;100.00
20622;BME280;10470;42.670;23.354;2023-03-22T05:40:47;94457.47;;;9.27;100.00
20622;BME280;10470;42.670;23.354;2023-03-22T05:43:13;94459.72;;;9.19;100.00
20622;BME280;10470;42.670;23.354;2023-03-22T05:45:39;94457.03;;;9.29;100.00
20622;BME280;10470;42.670;23.354;2023-03-22T05:48:05;94461.78;;;9.47;100.00
20622;BME280;10470;42.670;23.354;2023-03-22T05:50:31;94459.19;;;9.43;100.00
20622;BME280;10470;42.670;23.354;2023-03-22T05:52:57;94470.13;;;9.52;100.00
20622;BME280;10470;42.670;23.354;2023-03-22T05:55:23;94466.78;;;9.48;100.00
20622;BME280;10470;42.670;23.354;2023-03-22T05:57:49;94474.94;;;9.48;100.00
20622;BME280;10470;42.670;23.354;2023-03-22T06:00:17;94477.97;;;9.50;100.00
20622;BME280;10470;42.670;23.354;2023-03-22T06:02:45;94478.38;;;9.39;100.00
20622;BME280;10470;42.670;23.354;2023-03-22T06:05:11;94481.22;;;9.36;100.00
20622;BME280;10470;42.670;23.354;2023-03-22T06:07:38;94490.59;;;9.35;100.00
20622;BME280;10470;42.670;23.354;2023-03-22T06:10:05;94489.25;;;9.39;100.00
20622;BME280;10470;42.670;23.354;2023-03-22T06:12:32;94497.34;;;9.30;100.00
20622;BME280;10470;42.670;23.354;2023-03-22T06:14:58;94492.50;;;9.25;100.00
20622;BME280;10470;42.670;23.354;2023-03-22T06:17:23;94494.03;;;9.26;100.00
20622;BME280;10470;42.670;23.354;2023-03-22T06:19:50;94495.69;;;9.24;100.00
20622;BME280;10470;42.670;23.354;2023-03-22T06:22:16;94504.03;;;9.38;100.00
20622;BME280;10470;42.670;23.354;2023-03-22T06:24:41;94494.16;;;9.23;100.00
20622;BME280;10470;42.670;23.354;2023-03-22T06:27:08;94496.44;;;9.24;100.00
20622;BME280;10470;42.670;23.354;2023-03-22T06:29:34;94500.34;;;9.23;100.00
20622;BME280;10470;42.670;23.354;2023-03-22T06:32:00;94497.53;;;9.36;100.00
20622;BME280;10470;42.670;23.354;2023-03-22T06:34:26;94500.44;;;9.41;100.00
20622;BME280;10470;42.670;23.354;2023-03-22T06:36:52;94507.81;;;9.32;100.00
20622;BME280;10470;42.670;23.354;2023-03-22T06:39:21;94518.84;;;9.37;100.00
20622;BME280;10470;42.670;23.354;2023-03-22T06:41:47;94516.66;;;9.54;100.00
20622;BME280;10470;42.670;23.354;2023-03-22T06:44:12;94518.06;;;9.68;100.00
20622;BME280;10470;42.670;23.354;2023-03-22T06:46:38;94520.69;;;9.81;100.00
20622;BME280;10470;42.670;23.354;2023-03-22T06:49:03;94519.25;;;10.07;100.00
20622;BME280;10470;42.670;23.354;2023-03-22T06:51:29;94516.78;;;9.91;100.00
20622;BME280;10470;42.670;23.354;2023-03-22T06:53:55;94524.66;;;9.89;100.00
20622;BME280;10470;42.670;23.354;2023-03-22T06:56:21;94528.91;;;10.09;100.00
20622;BME280;10470;42.670;23.354;2023-03-22T06:58:47;94528.16;;;9.99;100.00
20622;BME280;10470;42.670;23.354;2023-03-22T07:01:13;94540.41;;;10.03;100.00
20622;BME280;10470;42.670;23.354;2023-03-22T07:03:39;94536.97;;;10.21;100.00
20622;BME280;10470;42.670;23.354;2023-03-22T07:06:06;94545.41;;;10.05;100.00
20622;BME280;10470;42.670;23.354;2023-03-22T07:08:33;94558.00;;;9.80;100.00
20622;BME280;10470;42.670;23.354;2023-03-22T07:11:00;94549.66;;;9.66;100.00
20622;BME280;10470;42.670;23.354;2023-03-22T07:13:25;94550.16;;;9.82;100.00
20622;BME280;10470;42.670;23.354;2023-03-22T07:16:09;94553.50;;;9.87;100.00
20622;BME280;10470;42.670;23.354;2023-03-22T07:18:34;94555.69;;;9.70;100.00
20622;BME280;10470;42.670;23.354;2023-03-22T07:21:00;94554.19;;;10.09;100.00
20622;BME280;10470;42.670;23.354;2023-03-22T07:23:26;94564.78;;;10.16;100.00
20622;BME280;10470;42.670;23.354;2023-03-22T07:25:51;94562.38;;;10.09;100.00
20622;BME280;10470;42.670;23.354;2023-03-22T07:28:20;94566.69;;;9.97;100.00
20622;BME280;10470;42.670;23.354;2023-03-22T07:30:45;94572.47;;;9.99;100.00
20622;BME280;10470;42.670;23.354;2023-03-22T07:33:11;94574.66;;;9.82;100.00
20622;BME280;10470;42.670;23.354;2023-03-22T07:35:37;94572.41;;;9.81;100.00
20622;BME280;10470;42.670;23.354;2023-03-22T07:38:03;94576.13;;;10.15;100.00
20622;BME280;10470;42.670;23.354;2023-03-22T07:40:29;94574.66;;;10.23;100.00
20622;BME280;10470;42.670;23.354;2023-03-22T07:42:55;94576.22;;;10.33;100.00
20622;BME280;10470;42.670;23.354;2023-03-22T07:45:21;94579.16;;;10.17;100.00
20622;BME280;10470;42.670;23.354;2023-03-22T07:47:47;94593.81;;;10.19;100.00
20622;BME280;10470;42.670;23.354;2023-03-22T07:50:13;94588.31;;;10.41;100.00
20622;BME280;10470;42.670;23.354;2023-03-22T07:52:40;94598.84;;;10.21;100.00
20622;BME280;10470;42.670;23.354;2023-03-22T07:55:07;94596.19;;;10.30;100.00
20622;BME280;10470;42.670;23.354;2023-03-22T07:57:34;94593.13;;;10.28;100.00
20622;BME280;10470;42.670;23.354;2023-03-22T07:59:59;94584.72;;;10.04;100.00
20622;BME280;10470;42.670;23.354;2023-03-22T08:02:25;94587.56;;;9.91;100.00
20622;BME280;10470;42.670;23.354;2023-03-22T08:04:50;94603.03;;;10.13;100.00
20622;BME280;10470;42.670;23.354;2023-03-22T08:07:17;94593.50;;;10.08;100.00
20622;BME280;10470;42.670;23.354;2023-03-22T08:09:43;94595.34;;;10.20;100.00
20622;BME280;10470;42.670;23.354;2023-03-22T08:12:10;94593.81;;;10.19;100.00
20622;BME280;10470;42.670;23.354;2023-03-22T08:14:35;94600.97;;;10.26;100.00
20622;BME280;10470;42.670;23.354;2023-03-22T08:17:05;94597.94;;;10.24;100.00
20622;BME280;10470;42.670;23.354;2023-03-22T08:19:31;94594.56;;;10.11;100.00
20622;BME280;10470;42.670;23.354;2023-03-22T08:21:57;94596.63;;;9.97;100.00
20622;BME280;10470;42.670;23.354;2023-03-22T08:24:22;94599.94;;;9.92;100.00
20622;BME280;10470;42.670;23.354;2023-03-22T08:26:48;94594.50;;;9.92;100.00
20622;BME280;10470;42.670;23.354;2023-03-22T08:29:15;94602.72;;;10.01;100.00
20622;BME280;10470;42.670;23.354;2023-03-22T08:31:41;94599.88;;;10.14;100.00
20622;BME280;10470;42.670;23.354;2023-03-22T08:34:07;94603.31;;;10.05;100.00
20622;BME280;10470;42.670;23.354;2023-03-22T08:36:32;94608.94;;;10.11;100.00
20622;BME280;10470;42.670;23.354;2023-03-22T08:38:58;94608.13;;;10.33;100.00
20622;BME280;10470;42.670;23.354;2023-03-22T08:41:23;94605.44;;;10.60;100.00
20622;BME280;10470;42.670;23.354;2023-03-22T08:43:49;94608.78;;;10.46;100.00
20622;BME280;10470;42.670;23.354;2023-03-22T08:46:15;94612.84;;;10.50;100.00
20622;BME280;10470;42.670;23.354;2023-03-22T08:48:41;94604.25;;;10.61;100.00
20622;BME280;10470;42.670;23.354;2023-03-22T08:51:06;94610.91;;;10.60;100.00
20622;BME280;10470;42.670;23.354;2023-03-22T08:53:32;94607.16;;;10.67;100.00
20622;BME280;10470;42.670;23.354;2023-03-22T08:55:57;94616.06;;;10.67;100.00
20622;BME280;10470;42.670;23.354;2023-03-22T08:58:26;94611.97;;;10.63;100.00
20622;BME280;10470;42.670;23.354;2023-03-22T09:00:52;94624.63;;;10.38;100.00
20622;BME280;10470;42.670;23.354;2023-03-22T09:03:18;94624.81;;;10.44;100.00
20622;BME280;10470;42.670;23.354;2023-03-22T09:05:44;94615.75;;;10.65;100.00
20622;BME280;10470;42.670;23.354;2023-03-22T09:08:09;94632.06;;;10.47;100.00
20622;BME280;10470;42.670;23.354;2023-03-22T09:10:37;94629.09;;;10.73;100.00
20622;BME280;10470;42.670;23.354;2023-03-22T09:13:04;94630.00;;;10.69;100.00
20622;BME280;10470;42.670;23.354;2023-03-22T09:15:29;94625.00;;;10.59;100.00
20622;BME280;10470;42.670;23.354;2023-03-22T09:17:55;94623.19;;;10.65;100.00
20622;BME280;10470;42.670;23.354;2023-03-22T09:20:20;94635.69;;;10.44;100.00
20622;BME280;10470;42.670;23.354;2023-03-22T09:22:50;94633.25;;;10.37;100.00
20622;BME280;10470;42.670;23.354;2023-03-22T09:25:15;94635.09;;;10.49;100.00
20622;BME280;10470;42.670;23.354;2023-03-22T09:27:41;94634.34;;;10.58;100.00
20622;BME280;10470;42.670;23.354;2023-03-22T09:30:07;94626.47;;;10.50;100.00
20622;BME280;10470;42.670;23.354;2023-03-22T09:32:32;94628.59;;;10.56;100.00
20622;BME280;10470;42.670;23.354;2023-03-22T09:34:58;94637.84;;;10.58;100.00
20622;BME280;10470;42.670;23.354;2023-03-22T09:37:24;94633.16;;;10.59;100.00
20622;BME280;10470;42.670;23.354;2023-03-22T09:39:55;94634.00;;;10.37;100.00
20622;BME280;10470;42.670;23.354;2023-03-22T09:42:41;94631.78;;;10.63;100.00
20622;BME280;10470;42.670;23.354;2023-03-22T09:45:18;94632.41;;;10.67;100.00
20622;BME280;10470;42.670;23.354;2023-03-22T09:47:47;94639.84;;;10.67;100.00
20622;BME280;10470;42.670;23.354;2023-03-22T09:50:22;94630.72;;;10.61;100.00
20622;BME280;10470;42.670;23.354;2023-03-22T09:52:49;94645.53;;;10.50;100.00
20622;BME280;10470;42.670;23.354;2023-03-22T10:00:56;94624.41;;;10.64;100.00
20622;BME280;10470;42.670;23.354;2023-03-22T10:06:30;94646.31;;;10.51;100.00
20622;BME280;10470;42.670;23.354;2023-03-22T10:14:28;94652.59;;;10.88;100.00
20622;BME280;10470;42.670;23.354;2023-03-22T10:16:56;94653.34;;;10.80;100.00
20622;BME280;10470;42.670;23.354;2023-03-22T10:19:28;94655.13;;;10.64;100.00
20622;BME280;10470;42.670;23.354;2023-03-22T10:21:56;94656.94;;;10.67;100.00
20622;BME280;10470;42.670;23.354;2023-03-22T10:24:30;94664.22;;;10.70;100.00
20622;BME280;10470;42.670;23.354;2023-03-22T10:26:57;94651.84;;;10.88;100.00
20622;BME280;10470;42.670;23.354;2023-03-22T10:29:33;94654.41;;;10.91;100.00
20622;BME280;10470;42.670;23.354;2023-03-22T10:34:36;94657.00;;;10.95;100.00
20622;BME280;10470;42.670;23.354;2023-03-22T10:37:04;94649.88;;;10.98;100.00
20622;BME280;10470;42.670;23.354;2023-03-22T10:39:32;94653.97;;;10.93;100.00
20622;BME280;10470;42.670;23.354;2023-03-22T10:42:02;94653.94;;;10.84;100.00
20622;BME280;10470;42.670;23.354;2023-03-22T10:44:30;94658.53;;;11.24;100.00
20622;BME280;10470;42.670;23.354;2023-03-22T10:47:00;94662.44;;;11.41;100.00
20622;BME280;10470;42.670;23.354;2023-03-22T10:49:35;94651.84;;;11.25;100.00
20622;BME280;10470;42.670;23.354;2023-03-22T10:52:15;94656.84;;;11.35;100.00
20622;BME280;10470;42.670;23.354;2023-03-22T10:54:44;94662.16;;;11.21;100.00
20622;BME280;10470;42.670;23.354;2023-03-22T10:57:10;94658.19;;;11.12;100.00
20622;BME280;10470;42.670;23.354;2023-03-22T11:02:19;94661.84;;;11.09;100.00
20622;BME280;10470;42.670;23.354;2023-03-22T11:04:47;94654.13;;;11.17;100.00
20622;BME280;10470;42.670;23.354;2023-03-22T11:07:33;94660.31;;;11.18;100.00
20622;BME280;10470;42.670;23.354;2023-03-22T11:12:39;94657.44;;;11.30;100.00
20622;BME280;10470;42.670;23.354;2023-03-22T11:17:43;94663.84;;;11.36;100.00
20622;BME280;10470;42.670;23.354;2023-03-22T11:20:16;94651.09;;;11.06;100.00
20622;BME280;10470;42.670;23.354;2023-03-22T11:22:45;94654.69;;;10.75;100.00
20622;BME280;10470;42.670;23.354;2023-03-22T11:25:29;94658.66;;;11.20;100.00
20622;BME280;10470;42.670;23.354;2023-03-22T11:30:31;94655.19;;;11.10;100.00
20622;BME280;10470;42.670;23.354;2023-03-22T11:33:17;94664.41;;;11.41;100.00
20622;BME280;10470;42.670;23.354;2023-03-22T11:35:45;94657.13;;;11.28;100.00
20622;BME280;10470;42.670;23.354;2023-03-22T11:40:58;94657.75;;;11.05;100.00
20622;BME280;10470;42.670;23.354;2023-03-22T11:43:29;94656.84;;;11.08;100.00
20622;BME280;10470;42.670;23.354;2023-03-22T11:45:56;94655.47;;;11.31;100.00
20622;BME280;10470;42.670;23.354;2023-03-22T11:48:30;94653.97;;;11.39;100.00
20622;BME280;10470;42.670;23.354;2023-03-22T11:51:11;94651.09;;;11.15;100.00
20622;BME280;10470;42.670;23.354;2023-03-22T11:53:39;94645.94;;;11.26;100.00
20622;BME280;10470;42.670;23.354;2023-03-22T11:56:09;94659.53;;;10.89;100.00
20622;BME280;10470;42.670;23.354;2023-03-22T12:01:02;94651.25;;;11.11;100.00
20622;BME280;10470;42.670;23.354;2023-03-22T12:03:39;94662.59;;;11.10;100.00
20622;BME280;10470;42.670;23.354;2023-03-22T12:06:21;94658.06;;;11.25;100.00
20622;BME280;10470;42.670;23.354;2023-03-22T12:08:54;94657.75;;;11.05;100.00
20622;BME280;10470;42.670;23.354;2023-03-22T12:11:27;94664.25;;;11.07;100.00
20622;BME280;10470;42.670;23.354;2023-03-22T12:13:59;94659.59;;;11.08;100.00
20622;BME280;10470;42.670;23.354;2023-03-22T12:16:29;94655.78;;;11.14;100.00
20622;BME280;10470;42.670;23.354;2023-03-22T12:19:12;94647.63;;;11.05;100.00
20622;BME280;10470;42.670;23.354;2023-03-22T12:21:40;94651.22;;;11.02;100.00
20622;BME280;10470;42.670;23.354;2023-03-22T12:24:13;94646.56;;;11.21;100.00
20622;BME280;10470;42.670;23.354;2023-03-22T12:26:43;94637.00;;;11.17;100.00
20622;BME280;10470;42.670;23.354;2023-03-22T12:29:15;94639.72;;;11.26;100.00
20622;BME280;10470;42.670;23.354;2023-03-22T12:32:02;94640.94;;;11.52;100.00
20622;BME280;10470;42.670;23.354;2023-03-22T12:34:50;94641.09;;;11.30;100.00
20622;BME280;10470;42.670;23.354;2023-03-22T12:37:23;94640.31;;;11.48;100.00
20622;BME280;10470;42.670;23.354;2023-03-22T12:39:55;94645.09;;;11.90;100.00
20622;BME280;10470;42.670;23.354;2023-03-22T12:42:45;94644.69;;;11.64;100.00
20622;BME280;10470;42.670;23.354;2023-03-22T12:45:18;94644.53;;;11.86;100.00
20622;BME280;10470;42.670;23.354;2023-03-22T12:47:48;94642.22;;;11.85;100.00
20622;BME280;10470;42.670;23.354;2023-03-22T12:50:18;94641.22;;;12.24;100.00
20622;BME280;10470;42.670;23.354;2023-03-22T12:52:48;94640.84;;;12.41;100.00
20622;BME280;10470;42.670;23.354;2023-03-22T12:55:20;94643.03;;;12.18;100.00
20622;BME280;10470;42.670;23.354;2023-03-22T12:57:47;94639.97;;;12.35;100.00
20622;BME280;10470;42.670;23.354;2023-03-22T13:00:17;94648.19;;;12.26;100.00
20622;BME280;10470;42.670;23.354;2023-03-22T13:03:05;94645.47;;;12.26;100.00
20622;BME280;10470;42.670;23.354;2023-03-22T13:05:33;94648.91;;;11.84;100.00
20622;BME280;10470;42.670;23.354;2023-03-22T13:07:59;94647.75;;;12.18;100.00
20622;BME280;10470;42.670;23.354;2023-03-22T13:21:26;94653.94;;;11.67;100.00
20622;BME280;10470;42.670;23.354;2023-03-22T13:27:08;94643.56;;;11.98;100.00
20622;BME280;10470;42.670;23.354;2023-03-22T13:29:33;94638.28;;;11.86;100.00
20622;BME280;10470;42.670;23.354;2023-03-22T13:32:05;94640.72;;;11.84;100.00
20622;BME280;10470;42.670;23.354;2023-03-22T13:34:37;94643.59;;;11.89;100.00
20622;BME280;10470;42.670;23.354;2023-03-22T13:37:18;94632.38;;;11.87;100.00
20622;BME280;10470;42.670;23.354;2023-03-22T13:39:50;94638.59;;;11.88;100.00
20622;BME280;10470;42.670;23.354;2023-03-22T13:42:21;94642.66;;;12.01;100.00
20622;BME280;10470;42.670;23.354;2023-03-22T13:44:54;94631.28;;;12.03;100.00
20622;BME280;10470;42.670;23.354;2023-03-22T13:50:05;94641.63;;;12.89;100.00
20622;BME280;10470;42.670;23.354;2023-03-22T13:52:50;94646.16;;;15.67;100.00
20622;BME280;10470;42.670;23.354;2023-03-22T13:55:46;94651.31;;;15.13;100.00
20622;BME280;10470;42.670;23.354;2023-03-22T14:01:05;94657.03;;;14.09;100.00
20622;BME280;10470;42.670;23.354;2023-03-22T14:03:40;94654.22;;;14.04;100.00
20622;BME280;10470;42.670;23.354;2023-03-22T14:06:13;94653.34;;;14.27;100.00
20622;BME280;10470;42.670;23.354;2023-03-22T14:08:41;94637.78;;;14.04;100.00
20622;BME280;10470;42.670;23.354;2023-03-22T14:13:47;94647.00;;;13.62;100.00
20622;BME280;10470;42.670;23.354;2023-03-22T14:16:42;94656.63;;;13.42;100.00
20622;BME280;10470;42.670;23.354;2023-03-22T14:19:18;94641.97;;;13.06;100.00
20622;BME280;10470;42.670;23.354;2023-03-22T14:21:48;94647.31;;;13.01;100.00
20622;BME280;10470;42.670;23.354;2023-03-22T14:24:16;94643.84;;;13.00;100.00
20622;BME280;10470;42.670;23.354;2023-03-22T14:26:50;94641.03;;;12.85;100.00